createdAt,value
2019-02-25T00:02:33.768Z,6.53
2019-02-25T00:05:17.586Z,5.93
2019-02-25T00:07:56.525Z,5.87
2019-02-25T00:13:38.542Z,5.70
2019-02-25T00:16:26.234Z,6.20
2019-02-25T00:19:02.540Z,6.23
2019-02-25T00:25:21.606Z,5.57
2019-02-25T00:28:01.555Z,6.40
2019-02-25T00:30:39.413Z,5.70
2019-02-25T00:37:04.481Z,5.70
2019-02-25T00:39:41.354Z,5.93
2019-02-25T00:42:17.938Z,5.70
2019-02-25T00:44:54.491Z,6.20
2019-02-25T00:47:36.489Z,5.57
2019-02-25T00:53:31.409Z,5.73
2019-02-25T00:59:37.592Z,6.20
2019-02-25T01:02:15.490Z,5.53
2019-02-25T01:04:50.970Z,5.73
2019-02-25T01:16:23.589Z,5.63
2019-02-25T01:19:03.550Z,5.70
2019-02-25T01:21:43.462Z,5.83
2019-02-25T01:24:19.973Z,5.40
2019-02-25T01:26:55.376Z,5.60
2019-02-25T01:32:59.973Z,5.97
2019-02-25T01:35:36.591Z,5.03
2019-02-25T01:38:15.638Z,5.27
2019-02-25T01:44:34.804Z,5.97
2019-02-25T01:47:14.991Z,6.03
2019-02-25T01:49:55.978Z,5.67
2019-02-25T01:52:31.371Z,5.37
2019-02-25T01:55:10.502Z,6.03
2019-02-25T02:01:40.446Z,5.77
2019-02-25T02:04:20.390Z,6.17
2019-02-25T02:06:56.965Z,5.93
2019-02-25T02:09:39.674Z,5.67
2019-02-25T02:12:14.971Z,5.90
2019-02-25T02:14:51.587Z,5.47
2019-02-25T02:17:28.972Z,6.07
2019-02-25T02:20:04.025Z,6.30
2019-02-25T02:22:40.783Z,6.40
2019-02-25T02:25:19.975Z,6.00
2019-02-25T02:27:55.558Z,6.53
2019-02-25T02:30:33.463Z,6.20
2019-02-25T02:33:09.312Z,6.47
2019-02-25T02:35:50.707Z,6.10
2019-02-25T02:38:26.548Z,6.33
2019-02-25T02:41:14.696Z,6.60
2019-02-25T02:43:56.478Z,6.53
2019-02-25T02:47:13.295Z,5.70
2019-02-25T02:49:49.567Z,5.57
2019-02-25T02:55:56.557Z,5.83
2019-02-25T03:02:05.199Z,5.90
2019-02-25T03:08:11.594Z,6.10
2019-02-25T03:10:47.846Z,5.40
2019-02-25T03:13:24.719Z,5.03
2019-02-25T03:16:02.424Z,5.87
2019-02-25T03:18:37.998Z,5.53
2019-02-25T03:21:13.996Z,5.57
2019-02-25T03:23:51.612Z,5.50
2019-02-25T03:26:27.470Z,5.10
2019-02-25T03:29:07.630Z,5.00
2019-02-25T03:31:43.480Z,5.60
2019-02-25T03:34:20.558Z,6.13
2019-02-25T03:37:03.142Z,5.33
2019-02-25T03:39:47.413Z,6.33
2019-02-25T03:42:24.710Z,5.50
2019-02-25T03:45:00.996Z,5.00
2019-02-25T03:47:37.233Z,5.23
2019-02-25T03:50:19.629Z,5.87
2019-02-25T03:53:01.434Z,5.33
2019-02-25T03:55:41.593Z,5.27
2019-02-25T03:58:19.895Z,5.43
2019-02-25T04:01:02.510Z,5.30
2019-02-25T04:03:40.026Z,5.40
2019-02-25T04:06:20.002Z,5.30
2019-02-25T04:08:58.886Z,4.77
2019-02-25T04:11:35.535Z,4.90
2019-02-25T04:14:12.616Z,5.53
2019-02-25T04:16:55.009Z,5.30
2019-02-25T04:19:34.575Z,5.60
2019-02-25T04:22:15.757Z,5.67
2019-02-25T04:24:56.716Z,5.17
2019-02-25T04:27:39.020Z,5.03
2019-02-25T04:30:23.581Z,4.93
2019-02-25T04:33:08.246Z,5.27
2019-02-25T04:35:47.787Z,4.73
2019-02-25T04:39:01.521Z,5.90
2019-02-25T04:41:43.935Z,5.67
2019-02-25T04:47:51.535Z,4.83
2019-02-25T04:53:58.965Z,5.30
2019-02-25T04:56:39.920Z,5.37
2019-02-25T04:59:16.590Z,5.10
2019-02-25T05:01:59.194Z,5.37
2019-02-25T05:04:54.719Z,5.40
2019-02-25T05:07:42.481Z,5.00
2019-02-25T05:10:20.624Z,4.90
2019-02-25T05:16:29.601Z,5.00
2019-02-25T05:22:32.018Z,5.30
2019-02-25T05:25:15.546Z,5.50
2019-02-25T05:27:57.738Z,5.30
2019-02-25T05:34:08.034Z,5.47
2019-02-25T05:36:51.201Z,6.03
2019-02-25T05:39:29.542Z,5.17
2019-02-25T05:45:48.043Z,5.03
2019-02-25T05:48:29.606Z,5.23
2019-02-25T05:51:08.046Z,5.37
2019-02-25T05:53:45.416Z,5.33
2019-02-25T05:56:22.286Z,6.10
2019-02-25T05:59:00.028Z,5.83
2019-02-25T06:01:36.645Z,5.80
2019-02-25T06:04:13.542Z,5.73
2019-02-25T06:06:50.824Z,5.63
2019-02-25T06:09:29.966Z,6.57
2019-02-25T06:12:11.524Z,6.37
2019-02-25T06:14:54.750Z,5.37
2019-02-25T06:17:35.518Z,6.30
2019-02-25T06:20:16.907Z,6.50
2019-02-25T06:23:12.018Z,5.87
2019-02-25T06:25:51.036Z,6.97
2019-02-25T06:28:27.602Z,5.90
2019-02-25T06:31:06.730Z,5.97
2019-02-25T06:33:47.626Z,6.30
2019-02-25T06:39:54.294Z,5.77
2019-02-25T06:46:12.580Z,6.63
2019-02-25T06:48:57.071Z,7.00
2019-02-25T06:51:32.664Z,5.93
2019-02-25T06:54:10.560Z,6.37
2019-02-25T06:56:47.643Z,6.43
2019-02-25T06:59:23.499Z,6.50
2019-02-25T07:02:09.804Z,6.47
2019-02-25T07:04:54.074Z,5.87
2019-02-25T07:07:50.600Z,6.93
2019-02-25T07:10:51.634Z,7.13
2019-02-25T07:13:50.620Z,7.10
2019-02-25T07:17:08.064Z,7.57
2019-02-25T07:20:15.644Z,7.00
2019-02-25T07:23:13.620Z,7.97
2019-02-25T07:26:17.321Z,8.27
2019-02-25T07:29:17.750Z,8.67
2019-02-25T07:32:21.462Z,8.60
2019-02-25T07:35:03.081Z,8.67
2019-02-25T07:37:55.503Z,7.50
2019-02-25T07:41:09.638Z,8.50
2019-02-25T07:44:15.390Z,8.50
2019-02-25T07:47:11.088Z,8.17
2019-02-25T07:50:15.315Z,8.70
2019-02-25T07:53:22.317Z,8.20
2019-02-25T07:56:14.649Z,8.30
2019-02-25T07:59:51.739Z,8.13
2019-02-25T08:02:55.042Z,8.43
2019-02-25T08:06:13.865Z,8.80
2019-02-25T08:12:46.285Z,8.40
2019-02-25T08:22:12.556Z,8.93
2019-02-25T08:28:40.057Z,9.27
2019-02-25T08:35:03.022Z,8.70
2019-02-25T08:41:32.755Z,9.07
2019-02-25T08:47:51.426Z,8.37
2019-02-25T08:53:57.830Z,8.10
2019-02-25T09:00:05.837Z,9.17
2019-02-25T09:06:09.798Z,7.70
2019-02-25T09:12:15.949Z,8.13
2019-02-25T09:18:27.914Z,9.00
2019-02-25T09:24:27.906Z,8.67
2019-02-25T09:27:07.436Z,8.70
2019-02-25T09:29:52.314Z,8.80
2019-02-25T09:32:39.014Z,8.87
2019-02-25T09:35:22.254Z,8.97
2019-02-25T09:38:12.019Z,9.10
2019-02-25T09:41:00.364Z,9.33
2019-02-25T09:43:43.050Z,9.50
2019-02-25T09:46:24.979Z,9.67
2019-02-25T09:49:18.224Z,10.27
2019-02-25T09:51:56.339Z,10.90
2019-02-25T09:54:44.486Z,10.57
2019-02-25T10:00:55.583Z,11.03
2019-02-25T10:03:33.901Z,11.00
2019-02-25T10:09:59.525Z,10.93
2019-02-25T10:16:19.852Z,10.83
2019-02-25T10:22:30.532Z,11.27
2019-02-25T10:28:50.439Z,10.37
2019-02-25T10:44:48.396Z,11.77
2019-02-25T10:50:59.699Z,12.13
2019-02-25T10:57:14.057Z,12.00
2019-02-25T10:59:52.451Z,12.03
2019-02-25T11:02:44.169Z,12.13
2019-02-25T11:05:21.218Z,13.30
2019-02-25T11:07:58.152Z,11.17
2019-02-25T11:14:10.902Z,11.97
2019-02-25T11:16:55.753Z,11.67
2019-02-25T11:19:37.762Z,11.70
2019-02-25T11:25:40.659Z,12.27
2019-02-25T11:28:25.575Z,12.37
2019-02-25T11:30:59.738Z,11.23
2019-02-25T11:33:41.730Z,10.53
2019-02-25T11:36:24.752Z,12.07
2019-02-25T11:42:50.163Z,11.70
2019-02-25T11:45:37.734Z,11.73
2019-02-25T11:48:25.035Z,11.17
2019-02-25T11:51:06.011Z,12.33
2019-02-25T11:53:42.882Z,12.07
2019-02-25T11:59:50.920Z,11.97
2019-02-25T12:02:31.296Z,11.77
2019-02-25T12:05:11.833Z,11.57
2019-02-25T12:07:48.911Z,12.73
2019-02-25T12:10:28.282Z,11.30
2019-02-25T12:13:10.670Z,12.00
2019-02-25T12:15:46.915Z,11.90
2019-02-25T12:18:28.508Z,12.47
2019-02-25T12:21:06.810Z,12.13
2019-02-25T12:23:46.417Z,11.40
2019-02-25T12:26:25.399Z,11.83
2019-02-25T12:29:10.774Z,11.37
2019-02-25T12:31:47.219Z,11.00
2019-02-25T12:38:04.882Z,10.00
2019-02-25T12:43:50.167Z,10.57
2019-02-25T12:46:33.601Z,10.53
2019-02-25T12:49:26.254Z,11.13
2019-02-25T12:52:09.671Z,9.93
2019-02-25T12:55:00.075Z,10.00
2019-02-25T12:57:39.607Z,9.97
2019-02-25T13:00:21.197Z,10.63
2019-02-25T13:03:12.405Z,10.63
2019-02-25T13:09:40.344Z,10.57
2019-02-25T13:12:51.940Z,11.27
2019-02-25T13:16:05.336Z,9.93
2019-02-25T13:18:51.417Z,11.20
2019-02-25T13:25:40.831Z,10.87
2019-02-25T13:31:36.045Z,11.00
2019-02-25T13:37:52.573Z,10.60
2019-02-25T13:40:38.141Z,10.73
2019-02-25T13:47:01.643Z,10.77
2019-02-25T13:53:04.059Z,11.00
2019-02-25T13:59:31.345Z,10.90
2019-02-25T14:02:14.624Z,11.63
2019-02-25T14:05:05.637Z,11.40
2019-02-25T14:07:54.226Z,11.20
2019-02-25T14:10:39.661Z,11.53
2019-02-25T14:13:30.678Z,12.20
2019-02-25T14:16:18.413Z,11.43
2019-02-25T14:19:00.609Z,11.70
2019-02-25T14:21:49.573Z,11.47
2019-02-25T14:28:15.617Z,11.00
2019-02-25T14:31:06.621Z,10.50
2019-02-25T14:34:05.467Z,11.20
2019-02-25T14:40:32.585Z,11.63
2019-02-25T14:43:12.676Z,11.97
2019-02-25T14:45:58.697Z,11.67
2019-02-25T14:48:50.553Z,11.10
2019-02-25T14:51:30.724Z,11.37
2019-02-25T14:54:17.823Z,11.63
2019-02-25T14:56:59.835Z,11.53
2019-02-25T15:00:16.642Z,10.87
2019-02-25T15:06:25.863Z,10.57
2019-02-25T15:12:39.841Z,11.20
2019-02-25T15:18:58.628Z,11.83
2019-02-25T15:22:03.156Z,11.47
2019-02-25T15:24:48.195Z,11.57
2019-02-25T15:27:29.708Z,10.23
2019-02-25T15:33:42.482Z,10.97
2019-02-25T15:36:25.364Z,10.40
2019-02-25T15:42:47.010Z,11.10
2019-02-25T15:45:32.913Z,13.63
2019-02-25T15:48:13.673Z,11.60
2019-02-25T15:50:57.955Z,11.90
2019-02-25T15:53:37.654Z,11.87
2019-02-25T15:59:57.765Z,13.70
2019-02-25T16:06:20.564Z,13.83
2019-02-25T16:09:11.959Z,12.43
2019-02-25T16:15:25.523Z,13.53
2019-02-25T16:18:14.205Z,13.53
2019-02-25T16:20:57.538Z,13.17
2019-02-25T16:23:40.801Z,14.07
2019-02-25T16:26:21.167Z,16.00
2019-02-25T16:29:03.130Z,13.00
2019-02-25T16:31:46.710Z,11.83
2019-02-25T16:37:55.157Z,11.93
2019-02-25T16:47:11.782Z,11.20
2019-02-25T16:49:58.574Z,12.33
2019-02-25T16:52:41.201Z,11.30
2019-02-25T16:55:26.981Z,11.23
2019-02-25T16:58:13.377Z,10.83
2019-02-25T17:04:31.886Z,11.60
2019-02-25T17:10:53.233Z,10.40
2019-02-25T17:17:07.178Z,10.23
2019-02-25T17:23:27.174Z,10.50
2019-02-25T17:29:49.177Z,9.90
2019-02-25T17:36:12.419Z,9.60
2019-02-25T17:39:06.406Z,9.90
2019-02-25T17:41:48.800Z,9.63
2019-02-25T17:44:34.907Z,10.07
2019-02-25T17:47:28.465Z,10.37
2019-02-25T17:50:08.666Z,10.50
2019-02-25T17:52:46.931Z,10.03
2019-02-25T17:55:32.219Z,9.90
2019-02-25T17:58:17.048Z,10.03
2019-02-25T18:01:05.717Z,9.53
2019-02-25T18:03:48.736Z,10.47
2019-02-25T18:06:41.018Z,12.90
2019-02-25T18:09:29.726Z,35.77
2019-02-25T18:12:21.183Z,39.97
2019-02-25T18:15:03.517Z,26.03
2019-02-25T18:17:54.752Z,10.57
2019-02-25T18:27:24.718Z,10.37
2019-02-25T18:30:04.690Z,10.87
2019-02-25T18:32:52.650Z,11.70
2019-02-25T18:39:17.629Z,11.37
2019-02-25T18:41:57.775Z,11.00
2019-02-25T18:44:37.570Z,12.33
2019-02-25T18:47:20.828Z,11.17
2019-02-25T18:50:17.275Z,11.57
2019-02-25T18:53:05.421Z,13.17
2019-02-25T18:55:54.529Z,11.97
2019-02-25T19:06:11.727Z,12.73
2019-02-25T19:12:19.481Z,13.10
2019-02-25T19:18:53.725Z,14.93
2019-02-25T19:25:04.035Z,15.60
2019-02-25T19:28:18.559Z,15.57
2019-02-25T19:34:44.858Z,15.10
2019-02-25T19:37:42.668Z,16.03
2019-02-25T19:41:15.358Z,15.37
2019-02-25T19:47:43.262Z,14.80
2019-02-25T19:57:47.615Z,15.87
2019-02-25T20:00:41.690Z,15.03
2019-02-25T20:03:24.732Z,14.17
2019-02-25T20:06:26.254Z,14.93
2019-02-25T20:09:18.808Z,14.80
2019-02-25T20:12:07.827Z,16.10
2019-02-25T20:15:11.315Z,13.87
2019-02-25T20:21:48.242Z,14.30
2019-02-25T20:24:42.434Z,15.03
2019-02-25T20:31:16.635Z,24.10
2019-02-25T20:40:21.193Z,15.50
2019-02-25T20:42:58.280Z,13.37
2019-02-25T20:45:43.879Z,14.07
2019-02-25T20:48:36.362Z,14.53
2019-02-25T20:51:27.114Z,14.03
2019-02-25T20:54:11.164Z,15.43
2019-02-25T20:57:18.576Z,14.33
2019-02-25T20:59:58.349Z,14.17
2019-02-25T21:02:39.112Z,17.60
2019-02-25T21:05:22.790Z,18.30
2019-02-25T21:08:16.738Z,17.43
2019-02-25T21:11:01.529Z,16.77
2019-02-25T21:13:40.825Z,15.23
2019-02-25T21:16:28.440Z,14.93
2019-02-25T21:19:08.136Z,15.27
2019-02-25T21:21:53.155Z,13.83
2019-02-25T21:24:54.044Z,14.30
2019-02-25T21:27:41.666Z,13.27
2019-02-25T21:30:26.086Z,13.40
2019-02-25T21:33:36.751Z,13.60
2019-02-25T21:36:31.640Z,13.20
2019-02-25T21:39:24.468Z,14.73
2019-02-25T21:45:08.994Z,14.67
2019-02-25T21:47:47.633Z,14.63
2019-02-25T21:50:38.342Z,13.53
2019-02-25T21:53:27.055Z,14.03
2019-02-25T21:56:26.945Z,14.57
2019-02-25T21:59:30.241Z,13.97
2019-02-25T22:02:13.179Z,13.53
2019-02-25T22:04:58.867Z,13.83
2019-02-25T22:07:40.860Z,14.87
2019-02-25T22:13:55.035Z,14.23
2019-02-25T22:20:09.741Z,13.63
2019-02-25T22:26:37.682Z,13.53
2019-02-25T22:29:22.159Z,14.73
2019-02-25T22:35:49.927Z,14.30
2019-02-25T22:38:31.057Z,13.37
2019-02-25T22:41:10.966Z,13.57
2019-02-25T22:44:01.868Z,14.50
2019-02-25T22:46:41.716Z,14.73
2019-02-25T22:49:27.917Z,14.03
2019-02-25T22:52:07.468Z,13.83
2019-02-25T22:54:52.128Z,13.20
2019-02-25T22:57:43.053Z,14.03
2019-02-25T23:00:34.233Z,14.20
2019-02-25T23:03:20.428Z,15.20
2019-02-25T23:05:56.998Z,15.10
2019-02-25T23:08:44.255Z,15.73
2019-02-25T23:11:32.051Z,17.57
2019-02-25T23:14:24.210Z,18.20
2019-02-25T23:17:06.718Z,17.73
2019-02-25T23:19:45.824Z,18.73
2019-02-25T23:22:28.164Z,16.30
2019-02-25T23:25:09.429Z,16.00
2019-02-25T23:27:53.576Z,14.20
2019-02-25T23:30:39.651Z,12.60
2019-02-25T23:33:22.764Z,12.73
2019-02-25T23:36:02.110Z,11.63
2019-02-25T23:38:46.150Z,13.40
2019-02-25T23:41:34.362Z,12.67
2019-02-25T23:44:32.904Z,13.37
2019-02-25T23:47:18.518Z,13.23
2019-02-25T23:50:04.155Z,13.33
2019-02-25T23:52:46.927Z,11.57
2019-02-25T23:55:45.124Z,13.27
2019-02-25T23:58:26.818Z,12.57
